Time;durP1;ratioP1;P1;durP2;ratioP2;P2;SDS_P1;SDS_P2;PMS_P1;PMS_P2;Temp;Humidity;BMP_temperature;BMP_pressure;BME280_temperature;BME280_humidity;BME280_pressure;Samples;Min_cycle;Max_cycle;Signal;HPM_P1;HPM_P2
2023/08/25 00:00:37;;;;;;;16.40;14.27;;;19.60;99.90;;;;;;5051456;28;20039;-81
2023/08/25 00:03:04;;;;;;;15.13;12.60;;;19.60;99.90;;;;;;5055120;28;20554;-81
2023/08/25 00:05:34;;;;;;;17.88;14.02;;;19.60;99.90;;;;;;5050404;28;20366;-81
2023/08/25 00:08:00;;;;;;;14.75;12.70;;;19.60;99.90;;;;;;5052658;28;20048;-81
2023/08/25 00:10:26;;;;;;;14.80;13.23;;;19.60;99.90;;;;;;5051770;28;20045;-81
2023/08/25 00:12:51;;;;;;;18.55;16.60;;;19.60;99.90;;;;;;5049623;28;20044;-80
2023/08/25 00:15:17;;;;;;;20.25;15.15;;;19.50;99.90;;;;;;5060135;28;20037;-80
2023/08/25 00:17:42;;;;;;;19.15;17.15;;;19.50;99.90;;;;;;5051968;28;20037;-81
2023/08/25 00:20:12;;;;;;;21.83;17.55;;;19.50;99.90;;;;;;5049201;28;20195;-81
2023/08/25 00:22:38;;;;;;;20.50;16.52;;;19.50;99.90;;;;;;5052820;28;20499;-81
2023/08/25 00:25:04;;;;;;;20.48;17.42;;;19.50;99.90;;;;;;5053314;28;20055;-81
2023/08/25 00:27:30;;;;;;;23.85;18.83;;;19.40;99.90;;;;;;5056809;28;20076;-81
2023/08/25 00:29:56;;;;;;;20.27;17.08;;;19.40;99.90;;;;;;5052330;28;20114;-81
2023/08/25 00:32:21;;;;;;;27.83;17.92;;;19.40;99.90;;;;;;5040486;28;20037;-81
2023/08/25 00:34:47;;;;;;;22.23;19.30;;;19.40;99.90;;;;;;5085264;28;20033;-81
2023/08/25 00:37:13;;;;;;;26.27;21.45;;;19.40;99.90;;;;;;5054457;28;20049;-81
2023/08/25 00:39:38;;;;;;;13.45;11.75;;;19.40;99.90;;;;;;5047928;28;20049;-81
2023/08/25 00:42:05;;;;;;;24.52;21.42;;;19.40;99.90;;;;;;5065736;28;20040;-81
2023/08/25 00:44:30;;;;;;;25.00;20.13;;;19.40;99.90;;;;;;5052768;28;20049;-81
2023/08/25 00:46:56;;;;;;;14.05;12.35;;;19.50;99.90;;;;;;5061737;28;20047;-80
2023/08/25 00:49:23;;;;;;;22.52;20.20;;;19.50;99.90;;;;;;5049026;28;20037;-81
2023/08/25 00:51:51;;;;;;;22.48;20.02;;;19.50;99.90;;;;;;5054331;28;20609;-80
2023/08/25 00:54:23;;;;;;;24.42;21.13;;;19.50;99.90;;;;;;5054602;28;20044;-80
2023/08/25 00:56:50;;;;;;;23.38;18.90;;;19.50;99.90;;;;;;5051277;28;20110;-81
2023/08/25 00:59:17;;;;;;;25.92;21.10;;;19.50;99.90;;;;;;5050356;28;20515;-81
2023/08/25 01:01:45;;;;;;;24.00;21.60;;;19.50;99.90;;;;;;5054743;28;20040;-81
2023/08/25 01:04:11;;;;;;;24.02;19.75;;;19.50;99.90;;;;;;5050697;28;20561;-80
2023/08/25 01:06:38;;;;;;;21.10;15.93;;;19.50;99.90;;;;;;5054964;28;20045;-80
2023/08/25 01:09:08;;;;;;;22.60;18.35;;;19.50;99.90;;;;;;5050182;28;20040;-80
2023/08/25 01:12:19;;;;;;;20.50;16.88;;;19.50;99.90;;;;;;5060074;28;20390;-80
2023/08/25 01:15:04;;;;;;;20.63;16.95;;;19.50;99.90;;;;;;5047784;28;20047;-80
2023/08/25 01:17:53;;;;;;;21.75;19.45;;;19.50;99.90;;;;;;5062099;28;20052;-80
2023/08/25 01:20:22;;;;;;;24.77;19.17;;;19.50;99.90;;;;;;5058534;28;20052;-80
2023/08/25 01:23:27;;;;;;;22.55;18.85;;;19.50;99.90;;;;;;5054355;28;20044;-80
2023/08/25 01:25:54;;;;;;;22.98;18.33;;;19.50;99.90;;;;;;5049039;28;20037;-80
2023/08/25 01:28:23;;;;;;;19.02;16.55;;;19.50;99.90;;;;;;5052278;28;20076;-80
2023/08/25 01:30:49;;;;;;;29.90;21.38;;;19.50;99.90;;;;;;5052298;28;20491;-80
2023/08/25 01:33:15;;;;;;;23.85;18.80;;;19.50;99.90;;;;;;5048239;28;20044;-80
2023/08/25 01:36:00;;;;;;;24.48;21.80;;;19.50;99.90;;;;;;5049356;28;20066;-80
2023/08/25 01:38:43;;;;;;;26.52;21.70;;;19.40;99.90;;;;;;5049124;28;20483;-80
2023/08/25 01:41:40;;;;;;;27.75;24.08;;;19.40;99.90;;;;;;5053692;28;20049;-80
2023/08/25 01:44:06;;;;;;;15.82;13.98;;;19.40;99.90;;;;;;5054173;28;20052;-80
2023/08/25 01:46:34;;;;;;;27.52;22.83;;;19.40;99.90;;;;;;5050965;28;20066;-80
2023/08/25 01:49:01;;;;;;;23.58;17.25;;;19.30;99.90;;;;;;5052374;28;20095;-80
2023/08/25 01:51:29;;;;;;;27.35;22.02;;;19.30;99.90;;;;;;5050815;28;20539;-80
2023/08/25 01:53:55;;;;;;;28.38;25.35;;;19.30;99.90;;;;;;5048848;28;20029;-80
2023/08/25 01:56:22;;;;;;;29.13;23.92;;;19.30;99.90;;;;;;5048346;28;20036;-80
2023/08/25 01:58:49;;;;;;;28.88;24.55;;;19.30;99.90;;;;;;5056566;28;20045;-80
2023/08/25 02:01:14;;;;;;;18.33;15.40;;;19.20;99.90;;;;;;5057600;28;20040;-80
2023/08/25 02:03:40;;;;;;;26.38;21.38;;;19.20;99.90;;;;;;5063291;28;20053;-80
2023/08/25 02:06:08;;;;;;;24.42;21.83;;;19.20;99.90;;;;;;5060072;28;20426;-80
2023/08/25 02:08:34;;;;;;;31.55;27.05;;;19.20;99.90;;;;;;5052823;28;20825;-80
2023/08/25 02:10:59;;;;;;;31.40;27.70;;;19.20;99.90;;;;;;5051888;28;20064;-80
2023/08/25 02:13:25;;;;;;;27.73;24.88;;;19.20;99.90;;;;;;5057175;28;20041;-80
2023/08/25 02:15:52;;;;;;;21.60;19.25;;;19.20;99.90;;;;;;5060132;28;20088;-80
2023/08/25 02:18:17;;;;;;;34.38;27.80;;;19.20;99.90;;;;;;5052829;28;20037;-80
2023/08/25 02:20:44;;;;;;;32.95;27.13;;;19.10;99.90;;;;;;5059246;28;20639;-80
2023/08/25 02:23:09;;;;;;;27.40;21.23;;;19.10;99.90;;;;;;5047297;28;20068;-80
2023/08/25 02:25:35;;;;;;;31.45;27.98;;;19.10;99.90;;;;;;5058372;28;20114;-80
2023/08/25 02:28:01;;;;;;;38.78;31.63;;;19.10;99.90;;;;;;5062464;28;20790;-81
2023/08/25 02:30:27;;;;;;;34.00;29.17;;;19.10;99.90;;;;;;5062486;28;20028;-81
2023/08/25 02:32:54;;;;;;;34.35;30.50;;;19.10;99.90;;;;;;5056120;28;20036;-81
2023/08/25 02:35:21;;;;;;;29.73;23.98;;;19.10;99.90;;;;;;5055798;28;20060;-81
2023/08/25 02:38:06;;;;;;;31.70;25.73;;;19.10;99.90;;;;;;5059286;28;20044;-81
2023/08/25 02:40:33;;;;;;;38.53;30.63;;;19.00;99.90;;;;;;5059736;28;20045;-81
2023/08/25 02:43:00;;;;;;;41.20;33.85;;;19.00;99.90;;;;;;5053991;28;20479;-81
2023/08/25 02:45:26;;;;;;;33.28;29.25;;;19.00;99.90;;;;;;5053000;28;20079;-81
2023/08/25 02:47:53;;;;;;;37.83;33.30;;;19.00;99.90;;;;;;5058153;28;20037;-81
2023/08/25 02:50:19;;;;;;;35.03;28.45;;;19.00;99.90;;;;;;5060845;28;20411;-81
2023/08/25 02:52:45;;;;;;;36.85;30.38;;;19.00;99.90;;;;;;5055910;28;20040;-81
2023/08/25 02:55:14;;;;;;;41.00;34.08;;;18.90;99.90;;;;;;5052361;28;20447;-81
2023/08/25 02:57:40;;;;;;;29.83;26.10;;;18.90;99.90;;;;;;5055243;28;20044;-81
2023/08/25 03:00:08;;;;;;;38.00;31.63;;;18.90;99.90;;;;;;5057220;28;20077;-81
2023/08/25 03:02:34;;;;;;;35.13;30.10;;;18.90;99.90;;;;;;5056251;28;20033;-81
2023/08/25 03:05:00;;;;;;;41.00;34.50;;;18.90;99.90;;;;;;5051671;28;20513;-80
2023/08/25 03:07:25;;;;;;;36.20;30.48;;;18.90;99.90;;;;;;5059283;28;20052;-80
2023/08/25 03:09:51;;;;;;;39.30;31.35;;;18.80;99.90;;;;;;5052454;28;20519;-81
2023/08/25 03:12:16;;;;;;;17.90;15.48;;;18.80;99.90;;;;;;5056711;28;20387;-81
2023/08/25 03:14:42;;;;;;;19.23;14.93;;;18.80;99.90;;;;;;5047706;28;20036;-81
2023/08/25 03:17:09;;;;;;;40.22;34.15;;;18.80;99.90;;;;;;5054249;28;20056;-80
2023/08/25 03:19:37;;;;;;;42.85;35.05;;;18.80;99.90;;;;;;5054227;28;20049;-80
2023/08/25 03:22:03;;;;;;;30.42;24.35;;;18.80;99.90;;;;;;5060026;28;20049;-80
2023/08/25 03:24:29;;;;;;;43.08;32.95;;;18.70;99.90;;;;;;5057202;28;20045;-80
2023/08/25 03:26:57;;;;;;;39.30;33.03;;;18.70;99.90;;;;;;5058770;28;20078;-81
2023/08/25 03:29:23;;;;;;;41.50;33.58;;;18.80;99.90;;;;;;5051988;28;20040;-81
2023/08/25 03:31:48;;;;;;;34.92;29.42;;;18.70;99.90;;;;;;5050387;28;20094;-81
2023/08/25 03:34:14;;;;;;;38.15;30.55;;;18.70;99.90;;;;;;5056993;28;20398;-81
2023/08/25 03:36:39;;;;;;;37.40;29.75;;;18.70;99.90;;;;;;5060591;28;20028;-81
2023/08/25 03:39:05;;;;;;;29.70;25.10;;;18.70;99.90;;;;;;5056214;28;20067;-81
2023/08/25 03:41:31;;;;;;;44.88;34.22;;;18.70;99.90;;;;;;5053423;28;20119;-80
2023/08/25 03:43:56;;;;;;;42.47;32.58;;;18.70;99.90;;;;;;5051847;28;20077;-80
2023/08/25 03:46:22;;;;;;;46.90;36.80;;;18.70;99.90;;;;;;5057501;28;20521;-81
2023/08/25 03:48:48;;;;;;;47.22;39.13;;;18.70;99.90;;;;;;5055766;28;20032;-81
2023/08/25 03:51:13;;;;;;;47.92;37.90;;;18.70;99.90;;;;;;5059624;28;20122;-81
2023/08/25 03:53:39;;;;;;;39.13;32.15;;;18.70;99.90;;;;;;5049660;28;20167;-81
2023/08/25 03:56:05;;;;;;;47.78;38.13;;;18.70;99.90;;;;;;5053771;28;20047;-81
2023/08/25 03:58:30;;;;;;;36.13;29.98;;;18.70;99.90;;;;;;5051047;28;20128;-81
2023/08/25 04:00:56;;;;;;;48.25;37.65;;;18.80;99.90;;;;;;5059429;28;20047;-80
2023/08/25 04:03:22;;;;;;;50.75;41.00;;;18.80;99.90;;;;;;5055213;28;20036;-81
2023/08/25 04:05:48;;;;;;;53.20;41.17;;;18.80;99.90;;;;;;5050137;28;20045;-81
2023/08/25 04:08:14;;;;;;;53.85;42.30;;;18.80;99.90;;;;;;5052290;28;20051;-81
2023/08/25 04:10:41;;;;;;;58.13;40.30;;;18.90;99.90;;;;;;5050230;28;20052;-81
2023/08/25 04:13:07;;;;;;;37.88;29.25;;;18.90;99.90;;;;;;5048965;28;20076;-81
2023/08/25 04:15:33;;;;;;;46.70;36.83;;;18.80;99.90;;;;;;5053532;28;20515;-81
2023/08/25 04:17:59;;;;;;;41.33;33.22;;;18.80;99.90;;;;;;5053093;28;20088;-81
2023/08/25 04:20:25;;;;;;;42.58;33.58;;;18.80;99.90;;;;;;5053913;28;20055;-81
2023/08/25 04:22:51;;;;;;;48.88;39.25;;;18.90;99.90;;;;;;5057425;28;20134;-80
2023/08/25 04:25:16;;;;;;;52.30;40.00;;;18.80;99.90;;;;;;5056295;28;20041;-81
2023/08/25 04:27:42;;;;;;;56.90;43.75;;;18.90;99.90;;;;;;5060795;28;20060;-81
2023/08/25 04:30:08;;;;;;;59.33;42.88;;;18.90;99.90;;;;;;5048582;28;20033;-81
2023/08/25 04:32:34;;;;;;;55.83;41.35;;;18.80;99.90;;;;;;5055951;28;20040;-81
2023/08/25 04:34:59;;;;;;;55.72;42.13;;;18.90;99.90;;;;;;5053875;28;20083;-81
2023/08/25 04:37:25;;;;;;;53.83;42.83;;;18.90;99.90;;;;;;5055297;28;20053;-81
2023/08/25 04:39:52;;;;;;;59.10;43.90;;;18.90;99.90;;;;;;5062082;28;20506;-81
2023/08/25 04:42:18;;;;;;;51.33;38.03;;;18.90;99.90;;;;;;5084615;28;21832;-81
2023/08/25 04:44:44;;;;;;;56.47;43.00;;;18.90;99.90;;;;;;5054715;28;20037;-81
2023/08/25 04:47:10;;;;;;;48.20;38.88;;;18.90;99.90;;;;;;5056104;28;20049;-81
2023/08/25 04:49:35;;;;;;;38.42;32.80;;;18.90;99.90;;;;;;5059436;28;20098;-80
2023/08/25 04:52:01;;;;;;;49.42;37.17;;;18.90;99.90;;;;;;5058046;28;20116;-81
2023/08/25 04:54:27;;;;;;;55.60;41.38;;;18.90;99.90;;;;;;5081585;28;20722;-81
2023/08/25 04:56:52;;;;;;;50.65;38.58;;;18.90;99.90;;;;;;5053077;28;20116;-81
2023/08/25 04:59:18;;;;;;;52.55;40.10;;;19.00;99.90;;;;;;5053831;28;20041;-81
2023/08/25 05:01:44;;;;;;;38.25;31.30;;;19.00;99.90;;;;;;5048335;28;20048;-79
2023/08/25 05:04:11;;;;;;;49.17;38.40;;;19.00;99.90;;;;;;5059635;28;20071;-81
2023/08/25 05:06:37;;;;;;;47.58;35.17;;;19.00;99.90;;;;;;5055324;28;20110;-81
2023/08/25 05:09:04;;;;;;;48.58;37.75;;;19.00;99.90;;;;;;5058988;28;20555;-81
2023/08/25 05:11:29;;;;;;;53.85;40.25;;;19.00;99.90;;;;;;5052175;28;20128;-79
2023/08/25 05:13:55;;;;;;;60.05;44.67;;;19.10;99.90;;;;;;5059638;28;20040;-80
2023/08/25 05:16:20;;;;;;;52.70;40.80;;;19.10;99.90;;;;;;5049849;28;20049;-80
2023/08/25 05:18:46;;;;;;;58.17;41.55;;;19.10;99.90;;;;;;5054672;28;20032;-80
2023/08/25 05:21:14;;;;;;;58.65;41.35;;;19.00;99.90;;;;;;5049967;28;20048;-80
2023/08/25 05:23:42;;;;;;;61.47;45.13;;;19.00;99.90;;;;;;5057162;28;20040;-80
2023/08/25 05:26:08;;;;;;;59.00;44.55;;;19.10;99.90;;;;;;5036268;28;20049;-80
2023/08/25 05:28:34;;;;;;;64.15;45.00;;;19.10;99.90;;;;;;5054005;28;20045;-80
2023/08/25 05:30:59;;;;;;;66.38;46.08;;;19.10;99.90;;;;;;5054765;28;20045;-79
2023/08/25 05:33:25;;;;;;;65.82;42.58;;;19.10;99.90;;;;;;5055728;28;20539;-80
2023/08/25 05:35:50;;;;;;;68.85;47.53;;;19.00;99.90;;;;;;5049557;28;20052;-80
2023/08/25 05:38:16;;;;;;;66.13;43.80;;;19.10;99.90;;;;;;5059359;28;20063;-81
2023/08/25 05:40:41;;;;;;;73.13;47.95;;;19.10;99.90;;;;;;5051244;28;20055;-81
2023/08/25 05:43:07;;;;;;;69.88;47.75;;;19.20;99.90;;;;;;5049102;28;20037;-80
2023/08/25 05:45:33;;;;;;;65.45;46.38;;;19.20;99.90;;;;;;5051926;28;20415;-80
2023/08/25 05:47:59;;;;;;;67.53;47.55;;;19.20;99.90;;;;;;5049536;28;20084;-80
2023/08/25 05:50:25;;;;;;;69.05;44.80;;;19.20;99.90;;;;;;5052025;28;20033;-80
2023/08/25 05:52:53;;;;;;;56.53;41.08;;;19.20;99.90;;;;;;5057693;28;20406;-80
2023/08/25 05:55:19;;;;;;;54.50;40.92;;;19.20;99.90;;;;;;5054838;28;20499;-80
2023/08/25 05:57:44;;;;;;;63.42;45.92;;;19.20;99.90;;;;;;5055229;28;20075;-81
2023/08/25 06:00:11;;;;;;;63.55;45.78;;;19.20;99.90;;;;;;5055391;28;20501;-83
2023/08/25 06:02:36;;;;;;;59.45;39.50;;;19.30;99.90;;;;;;5054699;28;20053;-80
2023/08/25 06:05:03;;;;;;;61.05;43.38;;;19.30;99.90;;;;;;5054816;28;20072;-82
2023/08/25 06:07:29;;;;;;;70.55;46.03;;;19.30;99.90;;;;;;5049863;28;21171;-86
2023/08/25 06:09:54;;;;;;;59.13;43.72;;;19.30;99.90;;;;;;5046844;28;20040;-85
2023/08/25 06:12:20;;;;;;;72.68;45.10;;;19.30;99.90;;;;;;5056217;28;20040;-86
2023/08/25 06:14:46;;;;;;;56.60;44.35;;;19.30;99.90;;;;;;5062157;28;20063;-87
2023/08/25 06:17:12;;;;;;;52.35;38.50;;;19.40;99.90;;;;;;5053476;28;20495;-87
2023/08/25 06:19:38;;;;;;;62.40;42.90;;;19.40;99.90;;;;;;5051017;28;20659;-86
2023/08/25 06:22:03;;;;;;;62.72;45.05;;;19.40;99.90;;;;;;5058746;28;20463;-87
2023/08/25 06:24:29;;;;;;;59.10;43.20;;;19.40;99.90;;;;;;5056306;28;20456;-87
2023/08/25 06:26:55;;;;;;;60.40;45.53;;;19.50;99.90;;;;;;5042536;28;20045;-85
2023/08/25 06:29:21;;;;;;;47.60;36.10;;;19.50;99.90;;;;;;5055694;28;20071;-87
2023/08/25 06:31:46;;;;;;;59.05;43.10;;;19.50;99.90;;;;;;5050177;28;20033;-87
2023/08/25 06:34:12;;;;;;;60.42;42.17;;;19.60;99.90;;;;;;5090825;28;20044;-90
2023/08/25 06:36:38;;;;;;;64.03;45.30;;;19.70;99.90;;;;;;5085325;28;20037;-89
2023/08/25 06:39:03;;;;;;;58.70;40.60;;;19.70;99.90;;;;;;5058063;28;20045;-87
2023/08/25 06:41:30;;;;;;;61.22;43.08;;;19.70;99.90;;;;;;5042461;28;20041;-87
2023/08/25 06:43:59;;;;;;;59.15;40.67;;;19.80;99.90;;;;;;5044868;28;20036;-86
2023/08/25 06:46:25;;;;;;;60.92;42.92;;;19.80;99.90;;;;;;5058952;28;20041;-85
2023/08/25 06:48:51;;;;;;;62.08;42.10;;;19.90;99.90;;;;;;5051789;28;20051;-84
2023/08/25 06:51:16;;;;;;;63.80;43.15;;;19.90;99.90;;;;;;5050784;28;20041;-86
2023/08/25 06:53:42;;;;;;;67.82;44.75;;;20.00;99.90;;;;;;5057602;28;20123;-85
2023/08/25 06:56:08;;;;;;;59.13;42.10;;;20.00;99.90;;;;;;5057040;28;20535;-84
2023/08/25 06:58:33;;;;;;;67.38;46.08;;;19.90;99.90;;;;;;5059352;28;20032;-84
2023/08/25 07:01:00;;;;;;;65.93;45.97;;;20.00;99.90;;;;;;5049901;28;20049;-84
2023/08/25 07:03:26;;;;;;;63.97;42.70;;;20.00;99.90;;;;;;5054291;28;20648;-84
2023/08/25 07:05:57;;;;;;;61.05;42.13;;;20.00;99.90;;;;;;5086049;28;20052;-84
2023/08/25 07:08:22;;;;;;;60.63;41.28;;;20.10;99.90;;;;;;5056524;28;20044;-84
2023/08/25 07:10:48;;;;;;;46.17;35.75;;;20.10;99.90;;;;;;5048798;28;20071;-84
2023/08/25 07:13:14;;;;;;;61.88;41.97;;;20.10;99.90;;;;;;5041425;28;20043;-84
2023/08/25 07:15:39;;;;;;;67.03;44.58;;;20.10;99.90;;;;;;5045216;28;20404;-84
2023/08/25 07:18:06;;;;;;;64.75;43.90;;;20.20;99.90;;;;;;5089317;28;20055;-88
2023/08/25 07:20:32;;;;;;;68.05;44.47;;;20.20;99.90;;;;;;5071170;28;20040;-89
2023/08/25 07:22:57;;;;;;;62.38;42.03;;;20.30;99.90;;;;;;5050270;28;20602;-88
2023/08/25 07:25:23;;;;;;;67.38;45.17;;;20.30;99.90;;;;;;5043016;28;20073;-87
2023/08/25 07:27:48;;;;;;;53.75;39.47;;;20.30;99.90;;;;;;5066611;28;20224;-86
2023/08/25 07:30:14;;;;;;;47.25;34.30;;;20.30;99.90;;;;;;5045932;28;20071;-86
2023/08/25 07:32:40;;;;;;;58.22;40.17;;;20.40;99.90;;;;;;5051758;28;20607;-86
2023/08/25 07:35:06;;;;;;;61.83;41.88;;;20.40;99.90;;;;;;5042672;28;20033;-86
2023/08/25 07:37:31;;;;;;;55.67;37.65;;;20.40;99.90;;;;;;5052934;28;20131;-83
2023/08/25 07:39:57;;;;;;;52.80;37.33;;;20.50;99.90;;;;;;5061788;28;20044;-83
2023/08/25 07:42:23;;;;;;;51.65;36.13;;;20.50;99.90;;;;;;5054278;28;20087;-83
2023/08/25 07:44:49;;;;;;;54.58;36.25;;;20.50;99.90;;;;;;5063070;28;20072;-83
2023/08/25 07:47:15;;;;;;;62.40;39.65;;;20.50;99.90;;;;;;5057201;28;20041;-83
2023/08/25 07:49:40;;;;;;;58.55;39.17;;;20.50;99.90;;;;;;5094767;28;20048;-84
2023/08/25 07:52:06;;;;;;;55.53;39.17;;;20.50;99.90;;;;;;5065018;28;20154;-83
2023/08/25 07:54:32;;;;;;;62.78;40.58;;;20.60;99.90;;;;;;5039652;28;20494;-83
2023/08/25 07:56:58;;;;;;;68.70;45.25;;;20.60;99.90;;;;;;5049584;28;20503;-83
2023/08/25 07:59:24;;;;;;;60.60;40.28;;;20.60;99.90;;;;;;5056192;28;20090;-83
2023/08/25 08:01:53;;;;;;;61.38;40.30;;;20.60;99.90;;;;;;5068860;28;20040;-83
2023/08/25 08:04:18;;;;;;;60.47;39.95;;;20.60;99.90;;;;;;5061167;28;20036;-84
2023/08/25 08:06:44;;;;;;;72.03;43.83;;;20.60;99.90;;;;;;5053461;28;20083;-84
2023/08/25 08:09:10;;;;;;;56.83;39.58;;;20.60;99.90;;;;;;5049740;28;20462;-84
2023/08/25 08:11:36;;;;;;;54.92;37.47;;;20.70;99.90;;;;;;5055240;28;20120;-84
2023/08/25 08:14:02;;;;;;;53.83;37.50;;;20.70;99.90;;;;;;5055820;28;20483;-84
2023/08/25 08:16:28;;;;;;;56.55;38.05;;;20.70;99.90;;;;;;5046071;28;20101;-84
2023/08/25 08:18:54;;;;;;;60.95;38.08;;;20.70;99.90;;;;;;5056443;28;20037;-85
2023/08/25 08:21:20;;;;;;;53.40;36.45;;;20.80;99.90;;;;;;5090490;28;20068;-83
2023/08/25 08:23:45;;;;;;;55.40;37.05;;;20.80;99.90;;;;;;5044025;28;20041;-85
2023/08/25 08:26:11;;;;;;;62.38;41.83;;;20.90;99.90;;;;;;5064863;28;20071;-85
2023/08/25 08:28:37;;;;;;;49.45;33.15;;;21.00;99.90;;;;;;5051982;28;20049;-85
2023/08/25 08:31:05;;;;;;;67.15;40.60;;;21.00;99.90;;;;;;5057090;28;20403;-85
2023/08/25 08:33:34;;;;;;;51.47;34.53;;;21.10;99.90;;;;;;5052101;28;20125;-84
2023/08/25 08:36:00;;;;;;;60.28;38.50;;;21.10;99.90;;;;;;5055923;28;20095;-85
2023/08/25 08:38:26;;;;;;;58.22;36.40;;;21.20;99.90;;;;;;5053891;28;20040;-84
2023/08/25 08:40:52;;;;;;;51.63;34.72;;;21.30;99.90;;;;;;5051689;28;20434;-86
2023/08/25 08:43:19;;;;;;;53.42;34.92;;;21.40;99.90;;;;;;5077665;28;20040;-85
2023/08/25 08:45:49;;;;;;;60.22;39.53;;;21.40;99.90;;;;;;5057293;28;20063;-85
2023/08/25 08:48:16;;;;;;;60.08;39.35;;;21.40;99.90;;;;;;5056043;28;20597;-85
2023/08/25 08:50:44;;;;;;;56.70;36.60;;;21.50;99.90;;;;;;5052891;28;20032;-85
2023/08/25 08:53:10;;;;;;;55.33;37.45;;;21.50;99.90;;;;;;5055012;28;20063;-85
2023/08/25 08:55:38;;;;;;;49.70;34.55;;;21.50;99.90;;;;;;5033461;28;20049;-85
2023/08/25 08:58:04;;;;;;;47.90;33.97;;;21.50;99.90;;;;;;5069028;28;20056;-85
2023/08/25 09:00:31;;;;;;;54.30;36.15;;;21.50;99.90;;;;;;5087973;28;20037;-84
2023/08/25 09:02:58;;;;;;;54.88;37.60;;;21.50;99.90;;;;;;5055158;28;20468;-86
2023/08/25 09:05:30;;;;;;;53.63;36.97;;;21.40;99.90;;;;;;5065238;28;20120;-86
2023/08/25 09:08:04;;;;;;;58.13;36.55;;;21.40;99.90;;;;;;5085886;28;20044;-85
2023/08/25 09:10:30;;;;;;;55.35;35.25;;;21.40;99.90;;;;;;5057011;28;20089;-86
2023/08/25 09:12:56;;;;;;;56.65;37.22;;;21.30;99.90;;;;;;5055163;28;20398;-85
2023/08/25 09:15:31;;;;;;;50.50;36.10;;;21.20;99.90;;;;;;5056969;28;20028;-85
2023/08/25 09:18:04;;;;;;;64.47;38.55;;;21.20;99.90;;;;;;5055477;28;20071;-86
2023/08/25 09:20:34;;;;;;;54.15;37.17;;;21.10;99.90;;;;;;5052323;28;20525;-86
2023/08/25 09:23:02;;;;;;;51.10;35.58;;;21.10;99.90;;;;;;5054836;28;20048;-86
2023/08/25 09:25:28;;;;;;;49.15;34.42;;;21.10;99.90;;;;;;5049262;28;20037;-86
2023/08/25 09:28:03;;;;;;;54.53;34.45;;;21.10;99.90;;;;;;5051272;28;20045;-86
2023/08/25 09:30:39;;;;;;;49.00;33.35;;;21.10;99.90;;;;;;5057537;28;20042;-85
2023/08/25 09:33:09;;;;;;;51.20;35.42;;;21.00;99.90;;;;;;5073098;28;20048;-86
2023/08/25 09:35:35;;;;;;;48.55;34.72;;;21.00;99.90;;;;;;5056037;28;20037;-86
2023/08/25 09:38:01;;;;;;;46.38;33.50;;;21.10;99.90;;;;;;5054019;28;20186;-86
2023/08/25 09:40:28;;;;;;;51.25;34.78;;;21.10;99.90;;;;;;5059910;28;20040;-86
2023/08/25 09:43:02;;;;;;;42.15;29.63;;;21.20;99.90;;;;;;5052280;28;20044;-85
2023/08/25 09:45:29;;;;;;;42.83;30.30;;;21.20;99.90;;;;;;5062618;28;20411;-86
2023/08/25 09:48:13;;;;;;;49.28;33.97;;;21.20;99.90;;;;;;5058330;28;20167;-88
2023/08/25 09:50:40;;;;;;;55.85;37.95;;;21.30;99.90;;;;;;5062498;28;20426;-88
2023/08/25 09:53:12;;;;;;;50.00;34.58;;;21.40;99.90;;;;;;5085704;28;20128;-86
2023/08/25 09:55:39;;;;;;;58.35;36.03;;;21.40;99.90;;;;;;5059269;28;20076;-86
2023/08/25 09:58:06;;;;;;;56.15;39.00;;;21.50;99.90;;;;;;5058714;28;20040;-86
2023/08/25 10:00:39;;;;;;;51.03;36.22;;;21.60;99.90;;;;;;5054377;28;20182;-86
2023/08/25 10:03:10;;;;;;;53.55;35.38;;;21.70;99.90;;;;;;5062920;28;20043;-86
2023/08/25 10:05:41;;;;;;;54.22;37.05;;;21.70;99.90;;;;;;5060433;28;20487;-87
2023/08/25 10:08:08;;;;;;;57.03;35.85;;;21.70;99.90;;;;;;5066250;28;20056;-86
2023/08/25 10:10:36;;;;;;;44.03;31.05;;;21.70;99.90;;;;;;5057042;28;20051;-86
2023/08/25 10:13:06;;;;;;;52.08;36.63;;;21.80;99.90;;;;;;5055744;28;20048;-86
2023/08/25 10:15:33;;;;;;;54.90;36.88;;;21.80;99.90;;;;;;5054071;28;20049;-87
2023/08/25 10:18:06;;;;;;;48.20;35.17;;;21.80;99.90;;;;;;5061014;28;20054;-87
2023/08/25 10:20:34;;;;;;;51.83;36.78;;;21.80;99.90;;;;;;5065558;28;20058;-86
2023/08/25 10:23:04;;;;;;;58.55;38.78;;;21.80;99.90;;;;;;5057702;28;20052;-85
2023/08/25 10:25:31;;;;;;;57.03;38.55;;;21.70;99.90;;;;;;5055814;28;20132;-86
2023/08/25 10:28:02;;;;;;;49.92;36.50;;;21.70;99.90;;;;;;5064414;28;20043;-86
2023/08/25 10:30:29;;;;;;;53.30;37.65;;;21.70;99.90;;;;;;5059441;28;20143;-86
2023/08/25 10:33:08;;;;;;;42.63;29.02;;;21.60;99.90;;;;;;5053439;28;20104;-86
2023/08/25 10:35:42;;;;;;;50.45;36.58;;;21.60;99.90;;;;;;5061763;28;20098;-86
2023/08/25 10:38:20;;;;;;;52.40;36.13;;;21.70;99.90;;;;;;5058742;28;20055;-87
2023/08/25 10:41:09;;;;;;;53.08;33.55;;;21.60;99.90;;;;;;5065924;28;20710;-86
2023/08/25 10:43:37;;;;;;;50.58;32.88;;;21.70;99.90;;;;;;5055881;28;20450;-86
2023/08/25 10:46:07;;;;;;;59.72;38.35;;;21.70;99.90;;;;;;5062986;28;20120;-86
2023/08/25 10:48:33;;;;;;;54.60;36.17;;;21.60;99.90;;;;;;5056732;28;20043;-86
2023/08/25 10:51:19;;;;;;;53.40;35.33;;;21.70;99.90;;;;;;5085445;28;20123;-86
2023/08/25 10:53:53;;;;;;;51.33;34.97;;;21.70;99.90;;;;;;5075475;28;20075;-86
2023/08/25 10:56:18;;;;;;;52.13;35.25;;;21.80;99.90;;;;;;5058567;28;20475;-86
2023/08/25 10:59:14;;;;;;;46.58;33.53;;;21.80;99.90;;;;;;5058817;28;20060;-86
2023/08/25 11:01:55;;;;;;;50.15;35.45;;;21.80;99.90;;;;;;5055997;28;20068;-85
2023/08/25 11:04:23;;;;;;;47.15;31.02;;;21.90;99.90;;;;;;5059387;28;20435;-85
2023/08/25 11:06:56;;;;;;;44.70;32.88;;;21.90;99.90;;;;;;5043529;28;20053;-86
2023/08/25 11:09:26;;;;;;;50.55;35.17;;;21.90;99.90;;;;;;5058121;28;20041;-86
2023/08/25 11:12:06;;;;;;;48.75;35.28;;;21.90;99.90;;;;;;5050686;28;20091;-86
2023/08/25 11:14:42;;;;;;;54.83;36.13;;;21.90;99.90;;;;;;5084539;28;20495;-85
2023/08/25 11:17:09;;;;;;;51.80;36.45;;;22.00;99.90;;;;;;5052933;28;20037;-85
2023/08/25 11:19:38;;;;;;;51.35;35.65;;;22.00;99.90;;;;;;5057062;28;20076;-86
2023/08/25 11:22:09;;;;;;;51.75;36.92;;;22.10;99.90;;;;;;5060549;28;20476;-86
2023/08/25 11:24:35;;;;;;;51.95;37.85;;;21.90;99.90;;;;;;5058318;28;20040;-86
2023/08/25 11:27:11;;;;;;;55.00;37.03;;;21.90;99.90;;;;;;5057485;28;20048;-85
2023/08/25 11:29:44;;;;;;;53.72;37.30;;;21.80;99.90;;;;;;5053046;28;20113;-85
2023/08/25 11:32:11;;;;;;;52.97;39.47;;;21.80;99.90;;;;;;5052196;28;20056;-86
2023/08/25 11:34:37;;;;;;;54.95;38.60;;;21.80;99.90;;;;;;5057519;28;20037;-86
2023/08/25 11:37:03;;;;;;;53.25;37.08;;;21.70;99.90;;;;;;5056013;28;20629;-86
2023/08/25 11:39:29;;;;;;;63.50;43.17;;;21.60;99.90;;;;;;5069540;28;20076;-86
2023/08/25 11:41:56;;;;;;;59.42;43.05;;;21.60;99.90;;;;;;5058386;28;20037;-85
2023/08/25 11:44:25;;;;;;;65.95;44.33;;;21.50;99.90;;;;;;5061873;28;20036;-86
2023/08/25 11:46:54;;;;;;;57.33;39.30;;;21.50;99.90;;;;;;5079973;28;20044;-86
2023/08/25 11:49:20;;;;;;;58.25;40.97;;;21.50;99.90;;;;;;5057151;28;20075;-85
2023/08/25 11:51:49;;;;;;;44.70;29.92;;;21.50;99.90;;;;;;5060533;28;20045;-86
2023/08/25 11:54:15;;;;;;;50.08;37.03;;;21.60;99.90;;;;;;5062125;28;20390;-85
2023/08/25 11:56:51;;;;;;;52.80;39.92;;;21.60;99.90;;;;;;5058711;28;20043;-85
2023/08/25 11:59:20;;;;;;;63.35;44.65;;;21.60;99.90;;;;;;5064602;28;20033;-85
2023/08/25 12:01:50;;;;;;;57.83;42.70;;;21.60;99.90;;;;;;5058728;28;20071;-83
2023/08/25 12:04:26;;;;;;;50.33;34.83;;;21.60;99.90;;;;;;5086813;28;20041;-87
2023/08/25 12:06:53;;;;;;;42.97;32.03;;;21.50;99.90;;;;;;5052712;28;20044;-86
2023/08/25 12:09:22;;;;;;;51.88;35.10;;;21.50;99.90;;;;;;5067484;28;20044;-86
2023/08/25 12:11:48;;;;;;;45.90;35.47;;;21.40;99.90;;;;;;5060234;28;20124;-86
2023/08/25 12:14:25;;;;;;;42.05;33.58;;;21.40;99.90;;;;;;5063528;28;20119;-87
2023/08/25 12:16:57;;;;;;;45.03;34.15;;;21.40;99.90;;;;;;5047359;28;20044;-87
2023/08/25 12:19:25;;;;;;;39.92;30.58;;;21.30;99.90;;;;;;5059098;28;20044;-86
2023/08/25 12:21:56;;;;;;;45.60;34.17;;;21.20;99.90;;;;;;5055307;28;20133;-86
2023/08/25 12:24:22;;;;;;;56.95;37.67;;;21.20;99.90;;;;;;5054761;28;20047;-87
2023/08/25 12:26:48;;;;;;;74.13;45.25;;;21.20;99.90;;;;;;5054069;28;20074;-88
2023/08/25 12:29:14;;;;;;;69.93;46.05;;;21.20;99.90;;;;;;5048974;28;20033;-88
2023/08/25 12:31:39;;;;;;;55.15;39.85;;;21.10;99.90;;;;;;5060701;28;20037;-87